sensor_id;sensor_type;location;lat;lon;timestamp;temperature;humidity
62991;DHT22;49084;48.204;16.202;2023-07-31T00:01:11;17.90;99.90
62991;DHT22;49084;48.204;16.202;2023-07-31T00:03:37;17.80;99.90
62991;DHT22;49084;48.204;16.202;2023-07-31T00:06:02;17.80;99.90
62991;DHT22;49084;48.204;16.202;2023-07-31T00:08:28;17.70;99.90
62991;DHT22;49084;48.204;16.202;2023-07-31T00:10:54;17.60;99.90
62991;DHT22;49084;48.204;16.202;2023-07-31T00:13:19;17.60;99.90
62991;DHT22;49084;48.204;16.202;2023-07-31T00:15:45;17.50;99.90
62991;DHT22;49084;48.204;16.202;2023-07-31T00:18:11;17.40;99.90
62991;DHT22;49084;48.204;16.202;2023-07-31T00:20:36;17.30;99.90
62991;DHT22;49084;48.204;16.202;2023-07-31T00:23:02;17.30;99.90
62991;DHT22;49084;48.204;16.202;2023-07-31T00:25:27;17.20;99.90
62991;DHT22;49084;48.204;16.202;2023-07-31T00:27:53;17.20;99.90
62991;DHT22;49084;48.204;16.202;2023-07-31T00:30:18;17.10;99.90
62991;DHT22;49084;48.204;16.202;2023-07-31T00:32:44;17.00;99.90
62991;DHT22;49084;48.204;16.202;2023-07-31T00:35:10;16.90;99.90
62991;DHT22;49084;48.204;16.202;2023-07-31T00:37:35;16.90;99.90
62991;DHT22;49084;48.204;16.202;2023-07-31T00:40:01;16.80;99.90
62991;DHT22;49084;48.204;16.202;2023-07-31T00:42:29;16.70;99.90
62991;DHT22;49084;48.204;16.202;2023-07-31T00:44:54;16.70;99.90
62991;DHT22;49084;48.204;16.202;2023-07-31T00:47:20;16.60;99.90
62991;DHT22;49084;48.204;16.202;2023-07-31T00:49:45;16.60;99.90
62991;DHT22;49084;48.204;16.202;2023-07-31T00:52:11;16.50;99.90
62991;DHT22;49084;48.204;16.202;2023-07-31T00:54:37;16.50;99.90
62991;DHT22;49084;48.204;16.202;2023-07-31T00:57:03;16.50;99.90
62991;DHT22;49084;48.204;16.202;2023-07-31T00:59:29;16.50;99.90
62991;DHT22;49084;48.204;16.202;2023-07-31T01:01:54;16.50;99.90
62991;DHT22;49084;48.204;16.202;2023-07-31T01:04:21;16.50;99.90
62991;DHT22;49084;48.204;16.202;2023-07-31T01:07:00;16.50;99.90
62991;DHT22;49084;48.204;16.202;2023-07-31T01:09:53;16.40;99.90
62991;DHT22;49084;48.204;16.202;2023-07-31T01:12:22;16.40;99.90
62991;DHT22;49084;48.204;16.202;2023-07-31T01:17:31;16.30;99.90
62991;DHT22;49084;48.204;16.202;2023-07-31T01:20:00;16.30;99.90
62991;DHT22;49084;48.204;16.202;2023-07-31T01:28:10;16.20;99.90
62991;DHT22;49084;48.204;16.202;2023-07-31T01:30:43;16.30;99.90
62991;DHT22;49084;48.204;16.202;2023-07-31T01:33:10;16.30;99.90
62991;DHT22;49084;48.204;16.202;2023-07-31T01:35:36;16.30;99.90
62991;DHT22;49084;48.204;16.202;2023-07-31T01:38:03;16.30;99.90
62991;DHT22;49084;48.204;16.202;2023-07-31T01:40:29;16.30;99.90
62991;DHT22;49084;48.204;16.202;2023-07-31T01:42:55;16.30;99.90
62991;DHT22;49084;48.204;16.202;2023-07-31T01:45:21;16.30;99.90
62991;DHT22;49084;48.204;16.202;2023-07-31T01:47:46;16.30;99.90
62991;DHT22;49084;48.204;16.202;2023-07-31T01:50:12;16.40;99.90
62991;DHT22;49084;48.204;16.202;2023-07-31T01:52:38;16.40;99.90
62991;DHT22;49084;48.204;16.202;2023-07-31T01:55:04;16.30;99.90
62991;DHT22;49084;48.204;16.202;2023-07-31T01:57:29;16.30;99.90
62991;DHT22;49084;48.204;16.202;2023-07-31T01:59:55;16.30;99.90
62991;DHT22;49084;48.204;16.202;2023-07-31T02:02:22;16.30;99.90
62991;DHT22;49084;48.204;16.202;2023-07-31T02:04:51;16.30;99.90
62991;DHT22;49084;48.204;16.202;2023-07-31T02:07:16;16.20;99.90
62991;DHT22;49084;48.204;16.202;2023-07-31T02:09:42;16.20;99.90
62991;DHT22;49084;48.204;16.202;2023-07-31T02:12:08;16.10;99.90
62991;DHT22;49084;48.204;16.202;2023-07-31T02:14:34;16.10;99.90
62991;DHT22;49084;48.204;16.202;2023-07-31T02:17:00;16.10;99.90
62991;DHT22;49084;48.204;16.202;2023-07-31T02:19:25;16.10;99.90
62991;DHT22;49084;48.204;16.202;2023-07-31T02:21:51;16.10;99.90
62991;DHT22;49084;48.204;16.202;2023-07-31T02:24:17;16.10;99.90
62991;DHT22;49084;48.204;16.202;2023-07-31T02:26:42;16.10;99.90
62991;DHT22;49084;48.204;16.202;2023-07-31T02:29:08;16.10;99.90
62991;DHT22;49084;48.204;16.202;2023-07-31T02:31:34;16.00;99.90
62991;DHT22;49084;48.204;16.202;2023-07-31T02:34:00;16.00;99.90
62991;DHT22;49084;48.204;16.202;2023-07-31T02:36:25;16.00;99.90
62991;DHT22;49084;48.204;16.202;2023-07-31T02:38:51;15.90;99.90
62991;DHT22;49084;48.204;16.202;2023-07-31T02:41:17;15.90;99.90
62991;DHT22;49084;48.204;16.202;2023-07-31T02:43:42;15.90;99.90
62991;DHT22;49084;48.204;16.202;2023-07-31T02:46:08;15.90;99.90
62991;DHT22;49084;48.204;16.202;2023-07-31T02:48:33;15.90;99.90
62991;DHT22;49084;48.204;16.202;2023-07-31T02:50:59;15.90;99.90
62991;DHT22;49084;48.204;16.202;2023-07-31T02:53:25;15.90;99.90
62991;DHT22;49084;48.204;16.202;2023-07-31T02:55:50;15.90;99.90
62991;DHT22;49084;48.204;16.202;2023-07-31T02:58:16;15.90;99.90
62991;DHT22;49084;48.204;16.202;2023-07-31T03:00:43;15.90;99.90
62991;DHT22;49084;48.204;16.202;2023-07-31T03:03:08;15.90;99.90
62991;DHT22;49084;48.204;16.202;2023-07-31T03:05:34;15.90;99.90
62991;DHT22;49084;48.204;16.202;2023-07-31T03:07:59;15.90;99.90
62991;DHT22;49084;48.204;16.202;2023-07-31T03:10:25;15.90;99.90
62991;DHT22;49084;48.204;16.202;2023-07-31T03:12:51;15.80;99.90
62991;DHT22;49084;48.204;16.202;2023-07-31T03:15:16;15.80;99.90
62991;DHT22;49084;48.204;16.202;2023-07-31T03:17:42;15.80;99.90
62991;DHT22;49084;48.204;16.202;2023-07-31T03:20:08;15.80;99.90
62991;DHT22;49084;48.204;16.202;2023-07-31T03:22:34;15.80;99.90
62991;DHT22;49084;48.204;16.202;2023-07-31T03:25:03;15.80;99.90
62991;DHT22;49084;48.204;16.202;2023-07-31T03:27:29;15.70;99.90
62991;DHT22;49084;48.204;16.202;2023-07-31T03:29:55;15.70;99.90
62991;DHT22;49084;48.204;16.202;2023-07-31T03:32:20;15.60;99.90
62991;DHT22;49084;48.204;16.202;2023-07-31T03:34:46;15.70;99.90
62991;DHT22;49084;48.204;16.202;2023-07-31T03:37:12;15.70;99.90
62991;DHT22;49084;48.204;16.202;2023-07-31T03:39:37;15.60;99.90
62991;DHT22;49084;48.204;16.202;2023-07-31T03:42:03;15.70;99.90
62991;DHT22;49084;48.204;16.202;2023-07-31T03:44:29;15.60;99.90
62991;DHT22;49084;48.204;16.202;2023-07-31T03:46:54;15.70;99.90
62991;DHT22;49084;48.204;16.202;2023-07-31T03:49:20;15.70;99.90
62991;DHT22;49084;48.204;16.202;2023-07-31T03:51:46;15.70;99.90
62991;DHT22;49084;48.204;16.202;2023-07-31T03:54:11;15.80;99.90
62991;DHT22;49084;48.204;16.202;2023-07-31T03:56:38;15.90;99.90
62991;DHT22;49084;48.204;16.202;2023-07-31T03:59:04;15.90;99.90
62991;DHT22;49084;48.204;16.202;2023-07-31T04:01:29;15.90;99.90
62991;DHT22;49084;48.204;16.202;2023-07-31T04:03:55;16.00;99.90
62991;DHT22;49084;48.204;16.202;2023-07-31T04:06:21;16.00;99.90
62991;DHT22;49084;48.204;16.202;2023-07-31T04:08:46;16.10;99.90
62991;DHT22;49084;48.204;16.202;2023-07-31T04:11:12;16.20;99.90
62991;DHT22;49084;48.204;16.202;2023-07-31T04:13:38;16.30;99.90
62991;DHT22;49084;48.204;16.202;2023-07-31T04:16:04;16.40;99.90
62991;DHT22;49084;48.204;16.202;2023-07-31T04:18:30;16.50;99.90
62991;DHT22;49084;48.204;16.202;2023-07-31T04:20:59;16.50;99.90
62991;DHT22;49084;48.204;16.202;2023-07-31T04:23:25;16.60;99.90
62991;DHT22;49084;48.204;16.202;2023-07-31T04:25:51;16.70;99.90
62991;DHT22;49084;48.204;16.202;2023-07-31T04:28:16;16.70;99.90
62991;DHT22;49084;48.204;16.202;2023-07-31T04:30:42;16.80;99.90
62991;DHT22;49084;48.204;16.202;2023-07-31T04:33:08;16.90;99.90
62991;DHT22;49084;48.204;16.202;2023-07-31T04:35:34;17.10;99.90
62991;DHT22;49084;48.204;16.202;2023-07-31T04:37:59;17.30;99.90
62991;DHT22;49084;48.204;16.202;2023-07-31T04:40:25;17.40;99.90
62991;DHT22;49084;48.204;16.202;2023-07-31T04:42:51;17.50;99.90
62991;DHT22;49084;48.204;16.202;2023-07-31T04:45:16;17.60;99.90
62991;DHT22;49084;48.204;16.202;2023-07-31T04:47:42;17.60;99.90
62991;DHT22;49084;48.204;16.202;2023-07-31T04:50:08;17.70;99.90
62991;DHT22;49084;48.204;16.202;2023-07-31T04:52:34;17.80;99.90
62991;DHT22;49084;48.204;16.202;2023-07-31T04:54:59;17.90;99.90
62991;DHT22;49084;48.204;16.202;2023-07-31T04:57:25;18.10;99.90
62991;DHT22;49084;48.204;16.202;2023-07-31T04:59:51;18.20;99.90
62991;DHT22;49084;48.204;16.202;2023-07-31T05:02:16;18.40;99.90
62991;DHT22;49084;48.204;16.202;2023-07-31T05:04:42;18.50;99.90
62991;DHT22;49084;48.204;16.202;2023-07-31T05:07:07;18.60;99.90
62991;DHT22;49084;48.204;16.202;2023-07-31T05:09:33;18.70;99.90
62991;DHT22;49084;48.204;16.202;2023-07-31T05:11:59;18.80;99.90
62991;DHT22;49084;48.204;16.202;2023-07-31T05:14:26;18.80;99.90
62991;DHT22;49084;48.204;16.202;2023-07-31T05:16:51;18.80;99.90
62991;DHT22;49084;48.204;16.202;2023-07-31T05:19:17;18.80;99.90
62991;DHT22;49084;48.204;16.202;2023-07-31T05:21:43;18.90;99.90
62991;DHT22;49084;48.204;16.202;2023-07-31T05:24:10;18.90;99.90
62991;DHT22;49084;48.204;16.202;2023-07-31T05:26:36;18.80;99.90
62991;DHT22;49084;48.204;16.202;2023-07-31T05:29:01;18.80;99.90
62991;DHT22;49084;48.204;16.202;2023-07-31T05:31:27;18.80;99.90
62991;DHT22;49084;48.204;16.202;2023-07-31T05:33:53;18.90;99.90
62991;DHT22;49084;48.204;16.202;2023-07-31T05:36:19;18.90;99.90
62991;DHT22;49084;48.204;16.202;2023-07-31T05:38:44;19.00;99.90
62991;DHT22;49084;48.204;16.202;2023-07-31T05:41:11;19.20;99.90
62991;DHT22;49084;48.204;16.202;2023-07-31T05:43:37;19.20;99.90
62991;DHT22;49084;48.204;16.202;2023-07-31T05:46:03;19.40;99.90
62991;DHT22;49084;48.204;16.202;2023-07-31T05:48:28;19.40;99.90
62991;DHT22;49084;48.204;16.202;2023-07-31T05:50:54;19.60;99.90
62991;DHT22;49084;48.204;16.202;2023-07-31T05:53:20;19.70;99.90
62991;DHT22;49084;48.204;16.202;2023-07-31T05:55:45;19.80;99.90
62991;DHT22;49084;48.204;16.202;2023-07-31T05:58:11;19.90;99.90
62991;DHT22;49084;48.204;16.202;2023-07-31T06:00:36;20.00;99.90
62991;DHT22;49084;48.204;16.202;2023-07-31T06:03:02;20.10;99.90
62991;DHT22;49084;48.204;16.202;2023-07-31T06:05:28;20.10;99.90
62991;DHT22;49084;48.204;16.202;2023-07-31T06:07:55;20.30;99.90
62991;DHT22;49084;48.204;16.202;2023-07-31T06:10:21;20.40;99.90
62991;DHT22;49084;48.204;16.202;2023-07-31T06:12:46;20.40;99.90
62991;DHT22;49084;48.204;16.202;2023-07-31T06:15:12;20.50;99.90
62991;DHT22;49084;48.204;16.202;2023-07-31T06:17:37;20.60;99.90
62991;DHT22;49084;48.204;16.202;2023-07-31T06:20:03;20.60;99.90
62991;DHT22;49084;48.204;16.202;2023-07-31T06:22:32;20.60;99.90
62991;DHT22;49084;48.204;16.202;2023-07-31T06:24:58;20.60;99.90
62991;DHT22;49084;48.204;16.202;2023-07-31T06:27:24;20.60;99.90
62991;DHT22;49084;48.204;16.202;2023-07-31T06:29:50;20.70;99.90
62991;DHT22;49084;48.204;16.202;2023-07-31T06:32:15;20.70;99.90
62991;DHT22;49084;48.204;16.202;2023-07-31T06:34:41;20.80;99.90
62991;DHT22;49084;48.204;16.202;2023-07-31T06:37:06;20.90;99.90
62991;DHT22;49084;48.204;16.202;2023-07-31T06:39:32;21.30;99.90
62991;DHT22;49084;48.204;16.202;2023-07-31T06:41:58;21.70;99.90
62991;DHT22;49084;48.204;16.202;2023-07-31T06:44:23;22.00;99.70
62991;DHT22;49084;48.204;16.202;2023-07-31T06:46:49;22.40;98.60
62991;DHT22;49084;48.204;16.202;2023-07-31T06:49:14;22.60;98.10
62991;DHT22;49084;48.204;16.202;2023-07-31T06:51:41;22.80;96.10
62991;DHT22;49084;48.204;16.202;2023-07-31T06:54:08;22.90;95.90
62991;DHT22;49084;48.204;16.202;2023-07-31T06:56:34;23.00;95.10
62991;DHT22;49084;48.204;16.202;2023-07-31T06:58:59;23.30;94.70
62991;DHT22;49084;48.204;16.202;2023-07-31T07:01:25;23.70;93.70
62991;DHT22;49084;48.204;16.202;2023-07-31T07:03:51;24.00;92.10
62991;DHT22;49084;48.204;16.202;2023-07-31T07:06:21;24.40;90.50
62991;DHT22;49084;48.204;16.202;2023-07-31T07:08:48;24.50;90.20
62991;DHT22;49084;48.204;16.202;2023-07-31T07:11:13;24.40;88.00
62991;DHT22;49084;48.204;16.202;2023-07-31T07:13:39;24.20;86.90
62991;DHT22;49084;48.204;16.202;2023-07-31T07:16:04;24.00;87.40
62991;DHT22;49084;48.204;16.202;2023-07-31T07:18:30;23.90;86.10
62991;DHT22;49084;48.204;16.202;2023-07-31T07:20:56;23.50;87.10
62991;DHT22;49084;48.204;16.202;2023-07-31T07:23:23;23.10;87.90
62991;DHT22;49084;48.204;16.202;2023-07-31T07:25:49;22.80;89.20
62991;DHT22;49084;48.204;16.202;2023-07-31T07:28:15;22.60;89.20
62991;DHT22;49084;48.204;16.202;2023-07-31T07:30:41;22.30;90.10
62991;DHT22;49084;48.204;16.202;2023-07-31T07:33:06;22.30;90.40
62991;DHT22;49084;48.204;16.202;2023-07-31T07:35:36;22.30;90.40
62991;DHT22;49084;48.204;16.202;2023-07-31T07:38:02;22.30;90.80
62991;DHT22;49084;48.204;16.202;2023-07-31T07:40:28;22.40;90.80
62991;DHT22;49084;48.204;16.202;2023-07-31T07:42:54;22.40;90.30
62991;DHT22;49084;48.204;16.202;2023-07-31T07:45:19;22.30;90.00
62991;DHT22;49084;48.204;16.202;2023-07-31T07:47:45;22.30;90.20
62991;DHT22;49084;48.204;16.202;2023-07-31T07:50:11;22.20;90.30
62991;DHT22;49084;48.204;16.202;2023-07-31T07:52:36;22.10;90.50
62991;DHT22;49084;48.204;16.202;2023-07-31T07:55:02;21.90;90.90
62991;DHT22;49084;48.204;16.202;2023-07-31T07:57:29;21.50;90.60
62991;DHT22;49084;48.204;16.202;2023-07-31T07:59:54;21.10;91.20
62991;DHT22;49084;48.204;16.202;2023-07-31T08:02:20;20.90;91.40
62991;DHT22;49084;48.204;16.202;2023-07-31T08:04:46;20.80;91.80
62991;DHT22;49084;48.204;16.202;2023-07-31T08:07:12;20.80;92.00
62991;DHT22;49084;48.204;16.202;2023-07-31T08:09:38;20.90;92.10
62991;DHT22;49084;48.204;16.202;2023-07-31T08:12:04;21.00;92.00
62991;DHT22;49084;48.204;16.202;2023-07-31T08:14:30;21.10;92.20
62991;DHT22;49084;48.204;16.202;2023-07-31T08:16:56;21.60;91.00
62991;DHT22;49084;48.204;16.202;2023-07-31T08:19:22;22.80;90.90
62991;DHT22;49084;48.204;16.202;2023-07-31T08:21:47;24.00;84.90
62991;DHT22;49084;48.204;16.202;2023-07-31T08:24:13;24.50;81.30
62991;DHT22;49084;48.204;16.202;2023-07-31T08:26:39;24.90;80.40
62991;DHT22;49084;48.204;16.202;2023-07-31T08:29:04;25.50;77.30
62991;DHT22;49084;48.204;16.202;2023-07-31T08:31:30;25.80;76.30
62991;DHT22;49084;48.204;16.202;2023-07-31T08:33:56;26.40;74.20
62991;DHT22;49084;48.204;16.202;2023-07-31T08:36:22;26.10;72.90
62991;DHT22;49084;48.204;16.202;2023-07-31T08:38:47;25.20;74.10
62991;DHT22;49084;48.204;16.202;2023-07-31T08:41:13;24.70;74.40
62991;DHT22;49084;48.204;16.202;2023-07-31T08:43:39;24.40;75.20
62991;DHT22;49084;48.204;16.202;2023-07-31T08:46:05;24.50;75.40
62991;DHT22;49084;48.204;16.202;2023-07-31T08:48:31;24.90;74.70
62991;DHT22;49084;48.204;16.202;2023-07-31T08:50:57;25.00;74.00
62991;DHT22;49084;48.204;16.202;2023-07-31T08:53:23;25.50;74.00
62991;DHT22;49084;48.204;16.202;2023-07-31T08:55:50;25.20;72.50
62991;DHT22;49084;48.204;16.202;2023-07-31T08:58:18;24.80;72.90
62991;DHT22;49084;48.204;16.202;2023-07-31T09:00:45;24.00;75.00
62991;DHT22;49084;48.204;16.202;2023-07-31T09:03:15;23.70;76.00
62991;DHT22;49084;48.204;16.202;2023-07-31T09:05:44;23.90;76.10
62991;DHT22;49084;48.204;16.202;2023-07-31T09:08:12;24.50;74.80
62991;DHT22;49084;48.204;16.202;2023-07-31T09:10:42;25.50;73.00
62991;DHT22;49084;48.204;16.202;2023-07-31T09:13:09;25.70;71.60
62991;DHT22;49084;48.204;16.202;2023-07-31T09:15:36;25.80;70.10
62991;DHT22;49084;48.204;16.202;2023-07-31T09:18:03;26.50;70.60
62991;DHT22;49084;48.204;16.202;2023-07-31T09:20:30;27.00;66.20
62991;DHT22;49084;48.204;16.202;2023-07-31T09:23:06;26.40;66.10
62991;DHT22;49084;48.204;16.202;2023-07-31T09:25:32;26.20;66.70
62991;DHT22;49084;48.204;16.202;2023-07-31T09:28:00;26.10;66.80
62991;DHT22;49084;48.204;16.202;2023-07-31T09:30:26;26.00;67.50
62991;DHT22;49084;48.204;16.202;2023-07-31T09:33:03;26.40;66.80
62991;DHT22;49084;48.204;16.202;2023-07-31T09:35:30;27.20;64.00
62991;DHT22;49084;48.204;16.202;2023-07-31T09:38:03;27.20;62.30
62991;DHT22;49084;48.204;16.202;2023-07-31T09:40:33;26.70;62.90
62991;DHT22;49084;48.204;16.202;2023-07-31T09:43:06;26.90;62.40
62991;DHT22;49084;48.204;16.202;2023-07-31T09:45:40;27.30;62.00
62991;DHT22;49084;48.204;16.202;2023-07-31T09:48:16;27.80;63.60
62991;DHT22;49084;48.204;16.202;2023-07-31T09:50:44;28.60;61.90
62991;DHT22;49084;48.204;16.202;2023-07-31T09:53:10;29.30;59.90
62991;DHT22;49084;48.204;16.202;2023-07-31T09:55:37;29.10;58.30
62991;DHT22;49084;48.204;16.202;2023-07-31T09:58:09;29.60;58.70
62991;DHT22;49084;48.204;16.202;2023-07-31T10:00:36;29.90;57.30
62991;DHT22;49084;48.204;16.202;2023-07-31T10:03:05;29.90;56.90
62991;DHT22;49084;48.204;16.202;2023-07-31T10:05:36;29.30;56.40
62991;DHT22;49084;48.204;16.202;2023-07-31T10:08:02;29.50;58.00
62991;DHT22;49084;48.204;16.202;2023-07-31T10:10:28;29.30;55.80
62991;DHT22;49084;48.204;16.202;2023-07-31T10:12:56;29.10;57.30
62991;DHT22;49084;48.204;16.202;2023-07-31T10:15:22;29.40;56.80
62991;DHT22;49084;48.204;16.202;2023-07-31T10:17:49;29.80;55.40
62991;DHT22;49084;48.204;16.202;2023-07-31T10:20:16;30.40;52.90
62991;DHT22;49084;48.204;16.202;2023-07-31T10:22:44;30.90;53.80
62991;DHT22;49084;48.204;16.202;2023-07-31T10:25:13;31.30;52.50
62991;DHT22;49084;48.204;16.202;2023-07-31T10:27:40;30.60;51.70
62991;DHT22;49084;48.204;16.202;2023-07-31T10:30:08;30.60;53.30
62991;DHT22;49084;48.204;16.202;2023-07-31T10:32:35;30.80;52.00
62991;DHT22;49084;48.204;16.202;2023-07-31T10:35:08;30.90;52.00
62991;DHT22;49084;48.204;16.202;2023-07-31T10:37:39;31.00;51.60
62991;DHT22;49084;48.204;16.202;2023-07-31T10:43:02;31.50;49.30
62991;DHT22;49084;48.204;16.202;2023-07-31T10:45:42;31.40;49.10
62991;DHT22;49084;48.204;16.202;2023-07-31T10:48:16;31.80;48.60
62991;DHT22;49084;48.204;16.202;2023-07-31T10:50:50;32.40;48.40
62991;DHT22;49084;48.204;16.202;2023-07-31T10:53:29;32.30;47.10
62991;DHT22;49084;48.204;16.202;2023-07-31T10:56:02;32.30;48.50
62991;DHT22;49084;48.204;16.202;2023-07-31T10:58:28;32.80;47.40
62991;DHT22;49084;48.204;16.202;2023-07-31T11:00:59;32.80;46.60
62991;DHT22;49084;48.204;16.202;2023-07-31T11:03:27;32.90;46.90
62991;DHT22;49084;48.204;16.202;2023-07-31T11:06:05;32.90;47.60
62991;DHT22;49084;48.204;16.202;2023-07-31T11:08:35;33.00;47.10
62991;DHT22;49084;48.204;16.202;2023-07-31T11:11:08;32.70;46.30
62991;DHT22;49084;48.204;16.202;2023-07-31T11:13:51;32.60;47.00
62991;DHT22;49084;48.204;16.202;2023-07-31T11:16:20;32.80;46.50
62991;DHT22;49084;48.204;16.202;2023-07-31T11:18:47;32.50;46.10
62991;DHT22;49084;48.204;16.202;2023-07-31T11:21:15;32.30;46.50
62991;DHT22;49084;48.204;16.202;2023-07-31T11:23:41;32.50;46.10
62991;DHT22;49084;48.204;16.202;2023-07-31T11:26:07;32.90;46.20
62991;DHT22;49084;48.204;16.202;2023-07-31T11:28:34;33.50;45.90
62991;DHT22;49084;48.204;16.202;2023-07-31T11:31:00;34.10;44.40
62991;DHT22;49084;48.204;16.202;2023-07-31T11:33:26;34.10;43.50
62991;DHT22;49084;48.204;16.202;2023-07-31T11:35:52;33.70;43.70
62991;DHT22;49084;48.204;16.202;2023-07-31T11:38:28;33.80;44.20
62991;DHT22;49084;48.204;16.202;2023-07-31T11:41:03;34.00;43.10
62991;DHT22;49084;48.204;16.202;2023-07-31T11:43:30;33.60;43.70
62991;DHT22;49084;48.204;16.202;2023-07-31T11:45:59;32.60;44.20
62991;DHT22;49084;48.204;16.202;2023-07-31T11:48:33;32.60;44.40
62991;DHT22;49084;48.204;16.202;2023-07-31T11:51:01;32.80;45.50
62991;DHT22;49084;48.204;16.202;2023-07-31T11:56:03;32.40;45.30
62991;DHT22;49084;48.204;16.202;2023-07-31T11:58:31;32.40;45.70
62991;DHT22;49084;48.204;16.202;2023-07-31T12:00:58;32.50;45.00
62991;DHT22;49084;48.204;16.202;2023-07-31T12:03:25;32.50;45.10
62991;DHT22;49084;48.204;16.202;2023-07-31T12:05:53;32.70;45.40
62991;DHT22;49084;48.204;16.202;2023-07-31T12:08:21;32.90;44.70
62991;DHT22;49084;48.204;16.202;2023-07-31T12:10:47;33.20;43.90
62991;DHT22;49084;48.204;16.202;2023-07-31T12:13:25;33.50;42.70
62991;DHT22;49084;48.204;16.202;2023-07-31T12:15:55;33.90;42.60
62991;DHT22;49084;48.204;16.202;2023-07-31T12:18:23;33.80;41.50
62991;DHT22;49084;48.204;16.202;2023-07-31T12:20:57;33.90;41.80
62991;DHT22;49084;48.204;16.202;2023-07-31T12:23:25;34.00;41.80
62991;DHT22;49084;48.204;16.202;2023-07-31T12:26:20;34.20;40.90
62991;DHT22;49084;48.204;16.202;2023-07-31T12:28:50;34.80;41.10
62991;DHT22;49084;48.204;16.202;2023-07-31T12:31:22;35.20;39.20
62991;DHT22;49084;48.204;16.202;2023-07-31T12:33:50;35.40;40.30
62991;DHT22;49084;48.204;16.202;2023-07-31T12:36:18;35.60;39.80
62991;DHT22;49084;48.204;16.202;2023-07-31T12:38:45;35.20;40.20
62991;DHT22;49084;48.204;16.202;2023-07-31T12:41:12;35.30;40.60
62991;DHT22;49084;48.204;16.202;2023-07-31T12:43:39;35.30;39.70
62991;DHT22;49084;48.204;16.202;2023-07-31T12:46:05;35.30;40.20
62991;DHT22;49084;48.204;16.202;2023-07-31T12:48:31;35.20;40.70
62991;DHT22;49084;48.204;16.202;2023-07-31T12:50:57;34.90;40.50
62991;DHT22;49084;48.204;16.202;2023-07-31T12:53:23;34.40;40.20
62991;DHT22;49084;48.204;16.202;2023-07-31T12:55:48;34.00;41.30
62991;DHT22;49084;48.204;16.202;2023-07-31T12:58:15;33.80;40.70
62991;DHT22;49084;48.204;16.202;2023-07-31T13:00:41;33.80;39.80
62991;DHT22;49084;48.204;16.202;2023-07-31T13:03:06;33.80;40.50
62991;DHT22;49084;48.204;16.202;2023-07-31T13:05:32;33.80;40.50
62991;DHT22;49084;48.204;16.202;2023-07-31T13:07:57;34.40;40.00
62991;DHT22;49084;48.204;16.202;2023-07-31T13:10:24;34.70;40.00
62991;DHT22;49084;48.204;16.202;2023-07-31T13:12:51;35.00;39.10
62991;DHT22;49084;48.204;16.202;2023-07-31T13:15:16;34.70;38.80
62991;DHT22;49084;48.204;16.202;2023-07-31T13:17:42;34.40;39.40
62991;DHT22;49084;48.204;16.202;2023-07-31T13:20:08;33.90;39.00
62991;DHT22;49084;48.204;16.202;2023-07-31T13:22:34;34.10;39.70
62991;DHT22;49084;48.204;16.202;2023-07-31T13:25:00;34.40;38.00
62991;DHT22;49084;48.204;16.202;2023-07-31T13:27:27;33.40;39.00
62991;DHT22;49084;48.204;16.202;2023-07-31T13:29:52;33.10;38.90
62991;DHT22;49084;48.204;16.202;2023-07-31T13:32:19;33.50;39.60
62991;DHT22;49084;48.204;16.202;2023-07-31T13:34:45;33.50;39.60
62991;DHT22;49084;48.204;16.202;2023-07-31T13:37:11;33.70;39.80
62991;DHT22;49084;48.204;16.202;2023-07-31T13:39:37;34.00;39.70
62991;DHT22;49084;48.204;16.202;2023-07-31T13:42:03;34.10;40.00
62991;DHT22;49084;48.204;16.202;2023-07-31T13:44:29;33.80;38.70
62991;DHT22;49084;48.204;16.202;2023-07-31T13:46:54;32.80;39.90
62991;DHT22;49084;48.204;16.202;2023-07-31T13:49:20;32.50;39.80
62991;DHT22;49084;48.204;16.202;2023-07-31T13:51:46;32.90;40.80
62991;DHT22;49084;48.204;16.202;2023-07-31T13:54:11;33.30;40.20
62991;DHT22;49084;48.204;16.202;2023-07-31T13:56:38;33.90;40.10
62991;DHT22;49084;48.204;16.202;2023-07-31T13:59:03;34.20;38.50
62991;DHT22;49084;48.204;16.202;2023-07-31T14:01:29;34.00;38.30
62991;DHT22;49084;48.204;16.202;2023-07-31T14:03:55;33.40;38.80
62991;DHT22;49084;48.204;16.202;2023-07-31T14:06:21;32.40;39.60
62991;DHT22;49084;48.204;16.202;2023-07-31T14:08:46;31.70;40.30
62991;DHT22;49084;48.204;16.202;2023-07-31T14:11:12;31.40;41.00
62991;DHT22;49084;48.204;16.202;2023-07-31T14:13:37;31.40;41.40
62991;DHT22;49084;48.204;16.202;2023-07-31T14:16:03;31.10;41.20
62991;DHT22;49084;48.204;16.202;2023-07-31T14:18:29;30.30;42.40
62991;DHT22;49084;48.204;16.202;2023-07-31T14:20:54;29.50;42.90
62991;DHT22;49084;48.204;16.202;2023-07-31T14:23:20;29.10;44.10
62991;DHT22;49084;48.204;16.202;2023-07-31T14:25:46;28.80;44.90
62991;DHT22;49084;48.204;16.202;2023-07-31T14:28:12;28.60;45.20
62991;DHT22;49084;48.204;16.202;2023-07-31T14:30:38;29.00;44.00
62991;DHT22;49084;48.204;16.202;2023-07-31T14:33:03;29.70;43.70
62991;DHT22;49084;48.204;16.202;2023-07-31T14:35:29;30.40;42.60
62991;DHT22;49084;48.204;16.202;2023-07-31T14:37:55;31.00;42.50
62991;DHT22;49084;48.204;16.202;2023-07-31T14:40:20;30.90;42.40
62991;DHT22;49084;48.204;16.202;2023-07-31T14:42:46;31.10;42.30
62991;DHT22;49084;48.204;16.202;2023-07-31T14:45:12;31.60;42.60
62991;DHT22;49084;48.204;16.202;2023-07-31T14:47:37;31.80;41.70
62991;DHT22;49084;48.204;16.202;2023-07-31T14:50:04;32.00;42.30
62991;DHT22;49084;48.204;16.202;2023-07-31T14:52:29;32.40;41.50
62991;DHT22;49084;48.204;16.202;2023-07-31T14:54:55;32.60;40.80
62991;DHT22;49084;48.204;16.202;2023-07-31T14:57:21;32.50;41.10
62991;DHT22;49084;48.204;16.202;2023-07-31T14:59:47;32.10;40.60
62991;DHT22;49084;48.204;16.202;2023-07-31T15:02:14;32.30;41.30
62991;DHT22;49084;48.204;16.202;2023-07-31T15:04:40;32.80;41.00
62991;DHT22;49084;48.204;16.202;2023-07-31T15:07:05;33.20;41.00
62991;DHT22;49084;48.204;16.202;2023-07-31T15:09:31;33.60;39.70
62991;DHT22;49084;48.204;16.202;2023-07-31T15:11:57;33.30;39.10
62991;DHT22;49084;48.204;16.202;2023-07-31T15:14:24;32.90;38.60
62991;DHT22;49084;48.204;16.202;2023-07-31T15:16:50;32.20;38.50
62991;DHT22;49084;48.204;16.202;2023-07-31T15:19:16;32.20;39.90
62991;DHT22;49084;48.204;16.202;2023-07-31T15:21:42;32.40;38.90
62991;DHT22;49084;48.204;16.202;2023-07-31T15:24:08;32.30;39.40
62991;DHT22;49084;48.204;16.202;2023-07-31T15:26:34;31.80;40.40